sensor_id;sensor_type;location;lat;lon;timestamp;P1;durP1;ratioP1;P2;durP2;ratioP2
59223;SDS011;45592;52.094;4.330;2022-09-03T00:02:40;8.98;;;2.70;;
59223;SDS011;45592;52.094;4.330;2022-09-03T00:05:18;6.55;;;2.75;;
59223;SDS011;45592;52.094;4.330;2022-09-03T00:10:56;6.97;;;2.78;;
59223;SDS011;45592;52.094;4.330;2022-09-03T00:13:31;5.38;;;2.70;;
59223;SDS011;45592;52.094;4.330;2022-09-03T00:16:00;5.97;;;2.95;;
59223;SDS011;45592;52.094;4.330;2022-09-03T00:18:30;8.23;;;2.90;;
59223;SDS011;45592;52.094;4.330;2022-09-03T00:21:19;5.65;;;2.90;;
59223;SDS011;45592;52.094;4.330;2022-09-03T00:23:59;5.25;;;2.67;;
59223;SDS011;45592;52.094;4.330;2022-09-03T00:26:29;8.52;;;2.90;;
59223;SDS011;45592;52.094;4.330;2022-09-03T00:29:10;5.70;;;2.58;;
59223;SDS011;45592;52.094;4.330;2022-09-03T00:31:47;8.00;;;2.78;;
59223;SDS011;45592;52.094;4.330;2022-09-03T00:34:24;4.85;;;2.70;;
59223;SDS011;45592;52.094;4.330;2022-09-03T00:36:55;5.60;;;2.88;;
59223;SDS011;45592;52.094;4.330;2022-09-03T00:39:21;7.35;;;2.90;;
59223;SDS011;45592;52.094;4.330;2022-09-03T00:41:53;5.55;;;2.50;;
59223;SDS011;45592;52.094;4.330;2022-09-03T01:00:50;7.45;;;3.13;;
59223;SDS011;45592;52.094;4.330;2022-09-03T01:08:51;6.10;;;2.65;;
59223;SDS011;45592;52.094;4.330;2022-09-03T01:11:42;5.32;;;2.65;;
59223;SDS011;45592;52.094;4.330;2022-09-03T01:14:38;4.43;;;2.55;;
59223;SDS011;45592;52.094;4.330;2022-09-03T01:25:37;8.82;;;3.58;;
59223;SDS011;45592;52.094;4.330;2022-09-03T01:39:53;7.30;;;3.30;;
59223;SDS011;45592;52.094;4.330;2022-09-03T01:42:58;5.32;;;2.47;;
59223;SDS011;45592;52.094;4.330;2022-09-03T01:50:52;6.40;;;3.20;;
59223;SDS011;45592;52.094;4.330;2022-09-03T01:53:27;5.95;;;2.65;;
59223;SDS011;45592;52.094;4.330;2022-09-03T01:59:11;7.18;;;2.60;;
59223;SDS011;45592;52.094;4.330;2022-09-03T02:01:44;5.78;;;2.65;;
59223;SDS011;45592;52.094;4.330;2022-09-03T02:06:49;6.15;;;3.00;;
59223;SDS011;45592;52.094;4.330;2022-09-03T02:09:16;5.30;;;2.90;;
59223;SDS011;45592;52.094;4.330;2022-09-03T02:11:43;6.35;;;3.20;;
59223;SDS011;45592;52.094;4.330;2022-09-03T02:14:11;7.18;;;3.40;;
59223;SDS011;45592;52.094;4.330;2022-09-03T02:16:37;10.05;;;2.70;;
59223;SDS011;45592;52.094;4.330;2022-09-03T02:19:12;5.13;;;2.70;;
59223;SDS011;45592;52.094;4.330;2022-09-03T02:21:46;5.38;;;2.83;;
59223;SDS011;45592;52.094;4.330;2022-09-03T02:24:18;8.90;;;3.10;;
59223;SDS011;45592;52.094;4.330;2022-09-03T02:26:44;5.90;;;2.75;;
59223;SDS011;45592;52.094;4.330;2022-09-03T02:29:10;5.57;;;2.80;;
59223;SDS011;45592;52.094;4.330;2022-09-03T02:31:37;5.25;;;2.70;;
59223;SDS011;45592;52.094;4.330;2022-09-03T02:34:03;5.78;;;3.08;;
59223;SDS011;45592;52.094;4.330;2022-09-03T02:36:29;5.93;;;2.92;;
59223;SDS011;45592;52.094;4.330;2022-09-03T02:38:58;5.18;;;2.55;;
59223;SDS011;45592;52.094;4.330;2022-09-03T02:41:24;7.18;;;3.05;;
59223;SDS011;45592;52.094;4.330;2022-09-03T02:43:58;6.95;;;2.92;;
59223;SDS011;45592;52.094;4.330;2022-09-03T02:46:35;6.15;;;2.80;;
59223;SDS011;45592;52.094;4.330;2022-09-03T02:49:20;6.82;;;3.15;;
59223;SDS011;45592;52.094;4.330;2022-09-03T02:51:46;6.35;;;3.05;;
59223;SDS011;45592;52.094;4.330;2022-09-03T02:54:11;6.78;;;2.80;;
59223;SDS011;45592;52.094;4.330;2022-09-03T02:56:38;5.97;;;2.92;;
59223;SDS011;45592;52.094;4.330;2022-09-03T02:59:04;6.25;;;3.00;;
59223;SDS011;45592;52.094;4.330;2022-09-03T03:01:30;5.70;;;2.80;;
59223;SDS011;45592;52.094;4.330;2022-09-03T03:03:56;8.25;;;3.20;;
59223;SDS011;45592;52.094;4.330;2022-09-03T03:06:22;6.75;;;2.80;;
59223;SDS011;45592;52.094;4.330;2022-09-03T03:08:48;4.47;;;2.60;;
59223;SDS011;45592;52.094;4.330;2022-09-03T03:11:14;7.50;;;2.72;;
59223;SDS011;45592;52.094;4.330;2022-09-03T03:13:42;4.43;;;2.70;;
59223;SDS011;45592;52.094;4.330;2022-09-03T03:16:09;6.78;;;2.53;;
59223;SDS011;45592;52.094;4.330;2022-09-03T03:18:35;5.75;;;2.60;;
59223;SDS011;45592;52.094;4.330;2022-09-03T03:21:11;5.47;;;2.58;;
59223;SDS011;45592;52.094;4.330;2022-09-03T03:23:38;5.88;;;2.90;;
59223;SDS011;45592;52.094;4.330;2022-09-03T03:26:05;6.82;;;2.70;;
59223;SDS011;45592;52.094;4.330;2022-09-03T03:28:33;7.20;;;2.78;;
59223;SDS011;45592;52.094;4.330;2022-09-03T03:31:06;5.45;;;2.90;;
59223;SDS011;45592;52.094;4.330;2022-09-03T03:33:33;6.53;;;2.85;;
59223;SDS011;45592;52.094;4.330;2022-09-03T03:36:02;5.38;;;2.88;;
59223;SDS011;45592;52.094;4.330;2022-09-03T03:38:35;5.82;;;2.67;;
59223;SDS011;45592;52.094;4.330;2022-09-03T03:41:12;8.55;;;3.03;;
59223;SDS011;45592;52.094;4.330;2022-09-03T03:43:39;11.23;;;3.10;;
59223;SDS011;45592;52.094;4.330;2022-09-03T03:46:05;4.68;;;3.25;;
59223;SDS011;45592;52.094;4.330;2022-09-03T03:48:31;7.38;;;2.80;;
59223;SDS011;45592;52.094;4.330;2022-09-03T03:51:00;5.32;;;2.80;;
59223;SDS011;45592;52.094;4.330;2022-09-03T03:53:31;4.93;;;2.80;;
59223;SDS011;45592;52.094;4.330;2022-09-03T03:56:02;10.80;;;2.78;;
59223;SDS011;45592;52.094;4.330;2022-09-03T03:58:29;4.70;;;2.50;;
59223;SDS011;45592;52.094;4.330;2022-09-03T04:01:03;6.57;;;2.95;;
59223;SDS011;45592;52.094;4.330;2022-09-03T04:03:30;5.90;;;2.60;;
59223;SDS011;45592;52.094;4.330;2022-09-03T04:05:55;4.75;;;2.83;;
59223;SDS011;45592;52.094;4.330;2022-09-03T04:08:23;5.35;;;2.67;;
59223;SDS011;45592;52.094;4.330;2022-09-03T04:10:49;6.18;;;2.90;;
59223;SDS011;45592;52.094;4.330;2022-09-03T04:13:15;4.97;;;2.88;;
59223;SDS011;45592;52.094;4.330;2022-09-03T04:15:41;7.55;;;3.10;;
59223;SDS011;45592;52.094;4.330;2022-09-03T04:18:06;5.25;;;3.03;;
59223;SDS011;45592;52.094;4.330;2022-09-03T04:20:32;8.90;;;2.97;;
59223;SDS011;45592;52.094;4.330;2022-09-03T04:22:59;5.03;;;3.00;;
59223;SDS011;45592;52.094;4.330;2022-09-03T04:25:25;6.32;;;3.05;;
59223;SDS011;45592;52.094;4.330;2022-09-03T04:27:51;5.28;;;3.00;;
59223;SDS011;45592;52.094;4.330;2022-09-03T04:30:16;7.97;;;3.25;;
59223;SDS011;45592;52.094;4.330;2022-09-03T04:32:42;5.43;;;2.90;;
59223;SDS011;45592;52.094;4.330;2022-09-03T04:35:20;7.50;;;2.95;;
59223;SDS011;45592;52.094;4.330;2022-09-03T04:37:47;5.20;;;2.70;;
59223;SDS011;45592;52.094;4.330;2022-09-03T04:40:13;5.97;;;3.20;;
59223;SDS011;45592;52.094;4.330;2022-09-03T04:42:38;5.88;;;2.90;;
59223;SDS011;45592;52.094;4.330;2022-09-03T04:45:04;6.15;;;2.90;;
59223;SDS011;45592;52.094;4.330;2022-09-03T04:47:30;8.80;;;2.72;;
59223;SDS011;45592;52.094;4.330;2022-09-03T04:49:56;5.30;;;2.65;;
59223;SDS011;45592;52.094;4.330;2022-09-03T04:52:22;7.07;;;3.13;;
59223;SDS011;45592;52.094;4.330;2022-09-03T04:54:48;5.15;;;2.88;;
59223;SDS011;45592;52.094;4.330;2022-09-03T04:57:13;6.63;;;2.97;;
59223;SDS011;45592;52.094;4.330;2022-09-03T04:59:39;6.10;;;2.72;;
59223;SDS011;45592;52.094;4.330;2022-09-03T05:02:05;4.45;;;2.60;;
59223;SDS011;45592;52.094;4.330;2022-09-03T05:04:32;7.68;;;2.85;;
59223;SDS011;45592;52.094;4.330;2022-09-03T05:06:57;4.97;;;2.72;;
59223;SDS011;45592;52.094;4.330;2022-09-03T05:09:22;7.82;;;3.25;;
59223;SDS011;45592;52.094;4.330;2022-09-03T05:11:48;8.32;;;2.83;;
59223;SDS011;45592;52.094;4.330;2022-09-03T05:14:13;5.13;;;2.90;;
59223;SDS011;45592;52.094;4.330;2022-09-03T05:16:39;6.60;;;2.70;;
59223;SDS011;45592;52.094;4.330;2022-09-03T05:19:04;7.03;;;3.15;;
59223;SDS011;45592;52.094;4.330;2022-09-03T05:21:32;6.88;;;3.03;;
59223;SDS011;45592;52.094;4.330;2022-09-03T05:24:00;6.88;;;2.80;;
59223;SDS011;45592;52.094;4.330;2022-09-03T05:26:26;5.55;;;2.83;;
59223;SDS011;45592;52.094;4.330;2022-09-03T05:28:54;5.40;;;2.95;;
59223;SDS011;45592;52.094;4.330;2022-09-03T05:31:22;6.28;;;2.95;;
59223;SDS011;45592;52.094;4.330;2022-09-03T05:33:51;10.48;;;3.28;;
59223;SDS011;45592;52.094;4.330;2022-09-03T05:36:21;6.28;;;3.15;;
59223;SDS011;45592;52.094;4.330;2022-09-03T05:38:48;5.15;;;2.78;;
59223;SDS011;45592;52.094;4.330;2022-09-03T05:41:14;8.45;;;3.25;;
59223;SDS011;45592;52.094;4.330;2022-09-03T05:43:41;6.40;;;2.97;;
59223;SDS011;45592;52.094;4.330;2022-09-03T05:46:08;6.32;;;3.25;;
59223;SDS011;45592;52.094;4.330;2022-09-03T05:48:36;7.90;;;3.35;;
59223;SDS011;45592;52.094;4.330;2022-09-03T05:51:04;5.85;;;2.80;;
59223;SDS011;45592;52.094;4.330;2022-09-03T05:53:43;8.82;;;3.30;;
59223;SDS011;45592;52.094;4.330;2022-09-03T05:56:14;6.82;;;3.50;;
59223;SDS011;45592;52.094;4.330;2022-09-03T05:58:45;6.03;;;2.78;;
59223;SDS011;45592;52.094;4.330;2022-09-03T06:01:19;6.47;;;3.42;;
59223;SDS011;45592;52.094;4.330;2022-09-03T06:03:52;8.35;;;3.20;;
59223;SDS011;45592;52.094;4.330;2022-09-03T06:06:36;4.82;;;2.78;;
59223;SDS011;45592;52.094;4.330;2022-09-03T06:09:04;5.32;;;3.00;;
59223;SDS011;45592;52.094;4.330;2022-09-03T06:11:31;6.78;;;3.47;;
59223;SDS011;45592;52.094;4.330;2022-09-03T06:13:59;4.65;;;3.03;;
59223;SDS011;45592;52.094;4.330;2022-09-03T06:16:25;7.18;;;3.20;;
59223;SDS011;45592;52.094;4.330;2022-09-03T06:18:51;8.02;;;3.42;;
59223;SDS011;45592;52.094;4.330;2022-09-03T06:21:18;6.90;;;3.40;;
59223;SDS011;45592;52.094;4.330;2022-09-03T06:23:47;10.20;;;3.58;;
59223;SDS011;45592;52.094;4.330;2022-09-03T06:26:16;8.95;;;3.97;;
59223;SDS011;45592;52.094;4.330;2022-09-03T06:28:43;8.55;;;3.40;;
59223;SDS011;45592;52.094;4.330;2022-09-03T06:31:12;6.78;;;3.17;;
59223;SDS011;45592;52.094;4.330;2022-09-03T06:33:39;9.35;;;3.90;;
59223;SDS011;45592;52.094;4.330;2022-09-03T06:36:07;7.05;;;3.33;;
59223;SDS011;45592;52.094;4.330;2022-09-03T06:38:34;7.30;;;3.33;;
59223;SDS011;45592;52.094;4.330;2022-09-03T06:41:03;7.25;;;3.65;;
59223;SDS011;45592;52.094;4.330;2022-09-03T06:43:33;7.43;;;3.55;;
59223;SDS011;45592;52.094;4.330;2022-09-03T06:46:00;6.60;;;3.30;;
59223;SDS011;45592;52.094;4.330;2022-09-03T06:48:29;6.78;;;3.45;;
59223;SDS011;45592;52.094;4.330;2022-09-03T06:51:03;5.03;;;3.20;;
59223;SDS011;45592;52.094;4.330;2022-09-03T06:53:32;7.70;;;3.60;;
59223;SDS011;45592;52.094;4.330;2022-09-03T06:56:09;6.93;;;3.58;;
59223;SDS011;45592;52.094;4.330;2022-09-03T06:58:49;7.55;;;3.70;;
59223;SDS011;45592;52.094;4.330;2022-09-03T07:01:16;8.30;;;3.70;;
59223;SDS011;45592;52.094;4.330;2022-09-03T07:03:44;5.32;;;3.30;;
59223;SDS011;45592;52.094;4.330;2022-09-03T07:06:12;7.03;;;3.50;;
59223;SDS011;45592;52.094;4.330;2022-09-03T07:08:41;7.20;;;3.85;;
59223;SDS011;45592;52.094;4.330;2022-09-03T07:11:11;7.30;;;3.78;;
59223;SDS011;45592;52.094;4.330;2022-09-03T07:13:42;8.13;;;3.45;;
59223;SDS011;45592;52.094;4.330;2022-09-03T07:16:13;6.53;;;3.70;;
59223;SDS011;45592;52.094;4.330;2022-09-03T07:18:41;8.13;;;3.67;;
59223;SDS011;45592;52.094;4.330;2022-09-03T07:21:11;7.05;;;3.53;;
59223;SDS011;45592;52.094;4.330;2022-09-03T07:23:38;6.35;;;3.63;;
59223;SDS011;45592;52.094;4.330;2022-09-03T07:26:05;6.35;;;3.50;;
59223;SDS011;45592;52.094;4.330;2022-09-03T07:28:33;6.07;;;3.65;;
59223;SDS011;45592;52.094;4.330;2022-09-03T07:31:02;7.20;;;3.70;;
59223;SDS011;45592;52.094;4.330;2022-09-03T07:33:29;9.07;;;3.67;;
59223;SDS011;45592;52.094;4.330;2022-09-03T07:35:55;6.78;;;3.55;;
59223;SDS011;45592;52.094;4.330;2022-09-03T07:38:26;6.80;;;3.33;;
59223;SDS011;45592;52.094;4.330;2022-09-03T07:40:58;10.23;;;3.83;;
59223;SDS011;45592;52.094;4.330;2022-09-03T07:43:28;9.55;;;3.88;;
59223;SDS011;45592;52.094;4.330;2022-09-03T07:45:57;6.45;;;3.15;;
59223;SDS011;45592;52.094;4.330;2022-09-03T07:48:23;7.75;;;3.67;;
59223;SDS011;45592;52.094;4.330;2022-09-03T07:50:49;9.35;;;3.78;;
59223;SDS011;45592;52.094;4.330;2022-09-03T07:53:15;8.68;;;3.63;;
59223;SDS011;45592;52.094;4.330;2022-09-03T07:55:41;6.07;;;3.95;;
59223;SDS011;45592;52.094;4.330;2022-09-03T07:58:08;6.28;;;3.30;;
59223;SDS011;45592;52.094;4.330;2022-09-03T08:00:34;6.93;;;3.17;;
59223;SDS011;45592;52.094;4.330;2022-09-03T08:03:00;9.05;;;3.50;;
59223;SDS011;45592;52.094;4.330;2022-09-03T08:05:31;9.48;;;3.42;;
59223;SDS011;45592;52.094;4.330;2022-09-03T08:07:58;6.38;;;3.70;;
59223;SDS011;45592;52.094;4.330;2022-09-03T08:10:25;6.15;;;3.30;;
59223;SDS011;45592;52.094;4.330;2022-09-03T08:12:52;8.55;;;3.72;;
59223;SDS011;45592;52.094;4.330;2022-09-03T08:15:17;5.10;;;3.45;;
59223;SDS011;45592;52.094;4.330;2022-09-03T08:17:43;9.27;;;3.92;;
59223;SDS011;45592;52.094;4.330;2022-09-03T08:20:09;9.52;;;3.58;;
59223;SDS011;45592;52.094;4.330;2022-09-03T08:22:34;8.95;;;3.83;;
59223;SDS011;45592;52.094;4.330;2022-09-03T08:25:01;7.18;;;3.58;;
59223;SDS011;45592;52.094;4.330;2022-09-03T08:27:27;6.93;;;3.60;;
59223;SDS011;45592;52.094;4.330;2022-09-03T08:29:53;5.60;;;3.60;;
59223;SDS011;45592;52.094;4.330;2022-09-03T08:32:18;8.68;;;3.95;;
59223;SDS011;45592;52.094;4.330;2022-09-03T08:34:44;8.77;;;5.00;;
59223;SDS011;45592;52.094;4.330;2022-09-03T08:37:10;8.57;;;3.58;;
59223;SDS011;45592;52.094;4.330;2022-09-03T08:39:37;9.57;;;3.80;;
59223;SDS011;45592;52.094;4.330;2022-09-03T08:42:06;7.22;;;3.78;;
59223;SDS011;45592;52.094;4.330;2022-09-03T08:44:43;9.25;;;3.83;;
59223;SDS011;45592;52.094;4.330;2022-09-03T08:52:50;8.05;;;3.67;;
59223;SDS011;45592;52.094;4.330;2022-09-03T08:55:25;8.10;;;3.58;;
59223;SDS011;45592;52.094;4.330;2022-09-03T08:58:28;7.03;;;3.97;;
59223;SDS011;45592;52.094;4.330;2022-09-03T09:00:59;5.85;;;3.50;;
59223;SDS011;45592;52.094;4.330;2022-09-03T09:06:13;8.93;;;3.70;;
59223;SDS011;45592;52.094;4.330;2022-09-03T09:11:19;7.18;;;3.15;;
59223;SDS011;45592;52.094;4.330;2022-09-03T09:13:57;7.05;;;3.30;;
59223;SDS011;45592;52.094;4.330;2022-09-03T09:19:25;6.85;;;3.33;;
59223;SDS011;45592;52.094;4.330;2022-09-03T09:22:00;7.82;;;3.65;;
59223;SDS011;45592;52.094;4.330;2022-09-03T09:24:39;8.13;;;3.40;;
59223;SDS011;45592;52.094;4.330;2022-09-03T09:27:08;8.73;;;3.80;;
59223;SDS011;45592;52.094;4.330;2022-09-03T09:29:38;9.38;;;3.63;;
59223;SDS011;45592;52.094;4.330;2022-09-03T09:32:06;9.77;;;3.80;;
59223;SDS011;45592;52.094;4.330;2022-09-03T09:34:34;5.47;;;3.38;;
59223;SDS011;45592;52.094;4.330;2022-09-03T09:37:02;10.52;;;3.63;;
59223;SDS011;45592;52.094;4.330;2022-09-03T09:39:32;7.10;;;3.47;;
59223;SDS011;45592;52.094;4.330;2022-09-03T09:42:01;6.28;;;2.95;;
59223;SDS011;45592;52.094;4.330;2022-09-03T09:44:33;6.28;;;3.33;;
59223;SDS011;45592;52.094;4.330;2022-09-03T09:47:04;7.82;;;3.47;;
59223;SDS011;45592;52.094;4.330;2022-09-03T09:49:33;8.32;;;2.97;;
59223;SDS011;45592;52.094;4.330;2022-09-03T09:52:02;5.72;;;3.55;;
59223;SDS011;45592;52.094;4.330;2022-09-03T09:54:35;7.63;;;2.90;;
59223;SDS011;45592;52.094;4.330;2022-09-03T09:57:03;5.95;;;3.20;;
59223;SDS011;45592;52.094;4.330;2022-09-03T09:59:31;7.55;;;3.75;;
59223;SDS011;45592;52.094;4.330;2022-09-03T10:02:11;8.32;;;2.92;;
59223;SDS011;45592;52.094;4.330;2022-09-03T10:04:39;8.80;;;3.22;;
59223;SDS011;45592;52.094;4.330;2022-09-03T10:07:24;6.38;;;3.15;;
59223;SDS011;45592;52.094;4.330;2022-09-03T10:12:36;5.82;;;2.90;;
59223;SDS011;45592;52.094;4.330;2022-09-03T10:15:14;4.88;;;2.63;;
59223;SDS011;45592;52.094;4.330;2022-09-03T10:20:22;7.43;;;2.80;;
59223;SDS011;45592;52.094;4.330;2022-09-03T10:23:05;7.55;;;2.88;;
59223;SDS011;45592;52.094;4.330;2022-09-03T10:28:38;5.53;;;2.50;;
59223;SDS011;45592;52.094;4.330;2022-09-03T10:33:55;8.73;;;3.00;;
59223;SDS011;45592;52.094;4.330;2022-09-03T10:36:24;6.93;;;2.88;;
59223;SDS011;45592;52.094;4.330;2022-09-03T10:39:15;8.60;;;3.08;;
59223;SDS011;45592;52.094;4.330;2022-09-03T10:47:31;4.82;;;2.45;;
59223;SDS011;45592;52.094;4.330;2022-09-03T10:50:11;6.70;;;2.05;;
59223;SDS011;45592;52.094;4.330;2022-09-03T11:00:51;8.35;;;2.25;;
59223;SDS011;45592;52.094;4.330;2022-09-03T11:03:45;6.47;;;2.30;;
59223;SDS011;45592;52.094;4.330;2022-09-03T11:06:19;6.30;;;2.45;;
59223;SDS011;45592;52.094;4.330;2022-09-03T11:08:57;5.85;;;2.55;;
59223;SDS011;45592;52.094;4.330;2022-09-03T11:11:32;5.82;;;2.70;;
59223;SDS011;45592;52.094;4.330;2022-09-03T11:14:08;7.20;;;2.10;;
59223;SDS011;45592;52.094;4.330;2022-09-03T11:16:44;5.57;;;2.10;;
59223;SDS011;45592;52.094;4.330;2022-09-03T11:19:18;5.30;;;2.30;;
59223;SDS011;45592;52.094;4.330;2022-09-03T11:21:56;4.72;;;1.60;;
59223;SDS011;45592;52.094;4.330;2022-09-03T11:24:23;4.72;;;1.80;;
59223;SDS011;45592;52.094;4.330;2022-09-03T11:27:00;4.30;;;2.10;;
59223;SDS011;45592;52.094;4.330;2022-09-03T11:29:33;5.22;;;1.83;;
59223;SDS011;45592;52.094;4.330;2022-09-03T11:34:44;8.88;;;2.20;;
59223;SDS011;45592;52.094;4.330;2022-09-03T11:39:44;5.53;;;2.22;;
59223;SDS011;45592;52.094;4.330;2022-09-03T11:42:25;4.40;;;2.22;;
59223;SDS011;45592;52.094;4.330;2022-09-03T11:44:58;7.93;;;2.40;;
59223;SDS011;45592;52.094;4.330;2022-09-03T11:47:37;4.72;;;2.08;;
59223;SDS011;45592;52.094;4.330;2022-09-03T11:50:16;4.85;;;2.17;;
59223;SDS011;45592;52.094;4.330;2022-09-03T11:55:47;4.40;;;2.08;;
59223;SDS011;45592;52.094;4.330;2022-09-03T11:58:22;8.05;;;3.17;;
59223;SDS011;45592;52.094;4.330;2022-09-03T12:00:51;6.03;;;2.60;;
59223;SDS011;45592;52.094;4.330;2022-09-03T12:03:20;8.23;;;2.30;;
59223;SDS011;45592;52.094;4.330;2022-09-03T12:06:11;5.18;;;3.05;;
59223;SDS011;45592;52.094;4.330;2022-09-03T12:16:40;6.53;;;2.75;;
59223;SDS011;45592;52.094;4.330;2022-09-03T12:19:25;5.65;;;2.42;;
59223;SDS011;45592;52.094;4.330;2022-09-03T12:21:51;6.68;;;2.85;;
59223;SDS011;45592;52.094;4.330;2022-09-03T12:24:17;9.15;;;3.05;;
59223;SDS011;45592;52.094;4.330;2022-09-03T12:26:44;8.18;;;2.92;;
59223;SDS011;45592;52.094;4.330;2022-09-03T12:29:19;6.40;;;3.15;;
59223;SDS011;45592;52.094;4.330;2022-09-03T12:31:48;7.30;;;3.20;;
59223;SDS011;45592;52.094;4.330;2022-09-03T12:34:19;5.85;;;2.90;;
59223;SDS011;45592;52.094;4.330;2022-09-03T12:36:49;7.55;;;3.33;;
59223;SDS011;45592;52.094;4.330;2022-09-03T12:39:23;7.22;;;3.40;;
59223;SDS011;45592;52.094;4.330;2022-09-03T12:41:55;6.65;;;3.05;;
59223;SDS011;45592;52.094;4.330;2022-09-03T12:47:12;4.80;;;2.55;;
59223;SDS011;45592;52.094;4.330;2022-09-03T12:52:17;10.38;;;4.07;;
59223;SDS011;45592;52.094;4.330;2022-09-03T12:54:51;8.77;;;3.60;;
59223;SDS011;45592;52.094;4.330;2022-09-03T12:57:30;6.70;;;3.20;;
59223;SDS011;45592;52.094;4.330;2022-09-03T13:00:04;10.25;;;3.00;;
59223;SDS011;45592;52.094;4.330;2022-09-03T13:02:40;7.35;;;3.10;;
59223;SDS011;45592;52.094;4.330;2022-09-03T13:05:19;8.60;;;3.47;;
59223;SDS011;45592;52.094;4.330;2022-09-03T13:07:48;11.10;;;3.35;;
59223;SDS011;45592;52.094;4.330;2022-09-03T13:10:23;7.43;;;3.47;;
59223;SDS011;45592;52.094;4.330;2022-09-03T13:13:01;10.27;;;3.33;;
59223;SDS011;45592;52.094;4.330;2022-09-03T13:24:27;7.60;;;2.75;;
59223;SDS011;45592;52.094;4.330;2022-09-03T13:27:12;9.85;;;2.95;;
59223;SDS011;45592;52.094;4.330;2022-09-03T13:40:56;7.70;;;3.58;;
59223;SDS011;45592;52.094;4.330;2022-09-03T13:43:31;9.75;;;3.30;;
59223;SDS011;45592;52.094;4.330;2022-09-03T13:46:02;7.40;;;3.45;;
59223;SDS011;45592;52.094;4.330;2022-09-03T13:48:40;7.15;;;3.00;;
59223;SDS011;45592;52.094;4.330;2022-09-03T13:51:28;5.70;;;2.55;;
59223;SDS011;45592;52.094;4.330;2022-09-03T13:59:30;4.82;;;2.80;;
59223;SDS011;45592;52.094;4.330;2022-09-03T14:02:09;8.32;;;3.08;;
59223;SDS011;45592;52.094;4.330;2022-09-03T14:07:27;8.68;;;3.70;;
59223;SDS011;45592;52.094;4.330;2022-09-03T14:15:32;8.18;;;3.75;;
59223;SDS011;45592;52.094;4.330;2022-09-03T14:21:00;7.30;;;3.58;;
59223;SDS011;45592;52.094;4.330;2022-09-03T14:23:35;7.53;;;3.30;;
59223;SDS011;45592;52.094;4.330;2022-09-03T14:26:14;7.72;;;3.70;;
59223;SDS011;45592;52.094;4.330;2022-09-03T14:28:57;11.65;;;3.97;;
59223;SDS011;45592;52.094;4.330;2022-09-03T14:43:09;10.85;;;3.60;;
59223;SDS011;45592;52.094;4.330;2022-09-03T14:49:08;7.18;;;3.15;;
59223;SDS011;45592;52.094;4.330;2022-09-03T15:00:13;8.02;;;3.65;;
59223;SDS011;45592;52.094;4.330;2022-09-03T15:11:04;9.65;;;3.05;;
59223;SDS011;45592;52.094;4.330;2022-09-03T15:13:50;6.72;;;3.50;;
59223;SDS011;45592;52.094;4.330;2022-09-03T15:21:43;6.88;;;3.38;;
59223;SDS011;45592;52.094;4.330;2022-09-03T15:35:16;7.00;;;2.88;;
59223;SDS011;45592;52.094;4.330;2022-09-03T15:37:53;8.38;;;3.10;;
59223;SDS011;45592;52.094;4.330;2022-09-03T15:43:06;6.32;;;2.83;;
59223;SDS011;45592;52.094;4.330;2022-09-03T15:48:14;5.63;;;3.38;;
59223;SDS011;45592;52.094;4.330;2022-09-03T15:50:48;5.85;;;2.90;;
59223;SDS011;45592;52.094;4.330;2022-09-03T15:56:19;5.60;;;2.78;;
59223;SDS011;45592;52.094;4.330;2022-09-03T16:07:20;6.35;;;3.00;;
59223;SDS011;45592;52.094;4.330;2022-09-03T16:13:22;10.30;;;3.10;;
59223;SDS011;45592;52.094;4.330;2022-09-03T16:15:27;6.57;;;2.65;;
59223;SDS011;45592;52.094;4.330;2022-09-03T16:26:26;5.13;;;2.90;;
59223;SDS011;45592;52.094;4.330;2022-09-03T16:29:13;5.93;;;2.92;;
59223;SDS011;45592;52.094;4.330;2022-09-03T16:34:25;7.35;;;2.60;;
59223;SDS011;45592;52.094;4.330;2022-09-03T16:39:55;10.52;;;3.08;;
59223;SDS011;45592;52.094;4.330;2022-09-03T16:45:56;5.53;;;2.58;;
59223;SDS011;45592;52.094;4.330;2022-09-03T16:59:52;8.68;;;3.15;;
59223;SDS011;45592;52.094;4.330;2022-09-03T17:02:35;6.00;;;2.80;;
59223;SDS011;45592;52.094;4.330;2022-09-03T17:07:40;5.22;;;2.40;;
59223;SDS011;45592;52.094;4.330;2022-09-03T17:13:34;6.10;;;3.10;;
59223;SDS011;45592;52.094;4.330;2022-09-03T17:19:18;6.23;;;2.67;;
59223;SDS011;45592;52.094;4.330;2022-09-03T17:21:47;6.47;;;2.67;;
59223;SDS011;45592;52.094;4.330;2022-09-03T17:35:25;8.55;;;3.08;;
59223;SDS011;45592;52.094;4.330;2022-09-03T17:37:58;8.00;;;2.80;;
59223;SDS011;45592;52.094;4.330;2022-09-03T17:49:00;6.32;;;3.00;;
59223;SDS011;45592;52.094;4.330;2022-09-03T17:51:49;8.52;;;3.35;;
59223;SDS011;45592;52.094;4.330;2022-09-03T17:57:18;7.63;;;3.13;;
59223;SDS011;45592;52.094;4.330;2022-09-03T17:59:56;8.32;;;3.10;;
59223;SDS011;45592;52.094;4.330;2022-09-03T18:05:07;7.88;;;3.50;;
59223;SDS011;45592;52.094;4.330;2022-09-03T18:07:38;8.05;;;3.45;;
59223;SDS011;45592;52.094;4.330;2022-09-03T18:15:36;6.20;;;2.97;;
59223;SDS011;45592;52.094;4.330;2022-09-03T18:18:11;11.25;;;3.42;;
59223;SDS011;45592;52.094;4.330;2022-09-03T18:20:51;8.48;;;3.35;;
59223;SDS011;45592;52.094;4.330;2022-09-03T18:23:59;7.05;;;2.88;;
59223;SDS011;45592;52.094;4.330;2022-09-03T18:27:00;9.02;;;3.20;;
59223;SDS011;45592;52.094;4.330;2022-09-03T18:38:27;7.47;;;3.35;;
59223;SDS011;45592;52.094;4.330;2022-09-03T18:41:22;8.98;;;3.70;;
59223;SDS011;45592;52.094;4.330;2022-09-03T18:53:22;10.00;;;3.80;;
59223;SDS011;45592;52.094;4.330;2022-09-03T19:02:52;9.13;;;5.60;;
59223;SDS011;45592;52.094;4.330;2022-09-03T19:06:17;7.65;;;4.32;;
59223;SDS011;45592;52.094;4.330;2022-09-03T19:09:24;9.68;;;4.70;;
59223;SDS011;45592;52.094;4.330;2022-09-03T19:15:28;8.30;;;4.35;;
59223;SDS011;45592;52.094;4.330;2022-09-03T19:18:21;6.97;;;3.92;;
59223;SDS011;45592;52.094;4.330;2022-09-03T19:21:28;8.80;;;4.15;;
59223;SDS011;45592;52.094;4.330;2022-09-03T19:24:19;8.95;;;4.18;;
59223;SDS011;45592;52.094;4.330;2022-09-03T19:31:34;9.38;;;4.18;;
59223;SDS011;45592;52.094;4.330;2022-09-03T19:37:33;10.52;;;4.72;;
59223;SDS011;45592;52.094;4.330;2022-09-03T19:40:47;6.57;;;4.55;;
59223;SDS011;45592;52.094;4.330;2022-09-03T19:46:58;6.95;;;3.95;;
59223;SDS011;45592;52.094;4.330;2022-09-03T19:49:50;10.43;;;3.92;;
59223;SDS011;45592;52.094;4.330;2022-09-03T19:52:48;7.72;;;4.38;;
59223;SDS011;45592;52.094;4.330;2022-09-03T19:55:38;8.50;;;4.95;;
59223;SDS011;45592;52.094;4.330;2022-09-03T19:58:30;6.40;;;3.92;;
59223;SDS011;45592;52.094;4.330;2022-09-03T20:01:18;7.15;;;3.80;;
59223;SDS011;45592;52.094;4.330;2022-09-03T20:04:09;7.57;;;3.90;;
59223;SDS011;45592;52.094;4.330;2022-09-03T20:06:56;8.40;;;4.18;;
59223;SDS011;45592;52.094;4.330;2022-09-03T20:09:42;9.55;;;3.95;;
59223;SDS011;45592;52.094;4.330;2022-09-03T20:12:31;7.50;;;3.78;;
59223;SDS011;45592;52.094;4.330;2022-09-03T20:15:03;10.15;;;4.03;;
59223;SDS011;45592;52.094;4.330;2022-09-03T20:20:26;6.55;;;3.38;;
59223;SDS011;45592;52.094;4.330;2022-09-03T20:34:37;6.07;;;3.40;;
59223;SDS011;45592;52.094;4.330;2022-09-03T20:42:47;6.95;;;3.53;;
59223;SDS011;45592;52.094;4.330;2022-09-03T20:51:17;9.00;;;4.43;;
59223;SDS011;45592;52.094;4.330;2022-09-03T20:56:44;7.80;;;3.90;;
59223;SDS011;45592;52.094;4.330;2022-09-03T21:04:55;9.73;;;5.30;;
59223;SDS011;45592;52.094;4.330;2022-09-03T21:10:19;8.00;;;4.90;;
59223;SDS011;45592;52.094;4.330;2022-09-03T21:18:36;8.88;;;4.13;;
59223;SDS011;45592;52.094;4.330;2022-09-03T21:23:47;9.30;;;4.20;;
59223;SDS011;45592;52.094;4.330;2022-09-03T21:26:28;10.20;;;4.38;;
59223;SDS011;45592;52.094;4.330;2022-09-03T21:28:59;10.70;;;4.50;;
59223;SDS011;45592;52.094;4.330;2022-09-03T21:36:50;8.23;;;4.85;;
59223;SDS011;45592;52.094;4.330;2022-09-03T21:39:19;7.15;;;4.35;;
59223;SDS011;45592;52.094;4.330;2022-09-03T21:45:11;8.15;;;4.20;;
59223;SDS011;45592;52.094;4.330;2022-09-03T21:47:48;8.80;;;4.75;;